Tiempo atmosférico en la estación meteorológica de Aragüés Del Puerto, Huesca (1120 m.)



Fecha
DESCASC
Temp. máxima en grados centígrados (hora)
DESCASC
Temp. mínima en grados centígrados (hora)
DESCASC
Temp. media en grados centígrados
DESCASC
Racha de viento máxima en m/sg (hora)
DESCASC
Velocidad máxima media en intervalos de 10 minutos(hora)
DESCASC
Precipitaciones diarias en mm
DESCASC
Precipitaciones de 00:00 a 06:00 en mm
DESCASC
Precipitaciones de 06:00 a 12:00 en mm
DESCASC
Precipitaciones de 12:00 a 18:00 en mm
DESCASC
Precipitaciones de 18:00 a 24:00 en mm
DESCASC
17-10-2019 16.8 (18:00) 9.6 (09:20) 13.2 7.78 (09:20) 5 (03:50) 1 0 0.8 0.2 0
16-10-2019 17.2 (15:10) 6.8 (01:30) 12 6.67 (21:00) 4.44 (21:00) 0 0 0 0 0
15-10-2019 12.1 (16:10) 4.9 (06:50) 8.5 10.28 (12:20) 5 (12:50) 3.2 3 0.2 0 0
14-10-2019 18.1 (10:30) 8.2 (23:59) 13.2 13.89 (07:20) 6.94 (10:10) 23 0 0.2 15.4 7.4
13-10-2019 23.6 (15:30) 15.1 (00:00) 19.4 12.78 (15:10) 6.11 (09:20) 0 0 0 0 0
12-10-2019 23.6 (14:40) 16.1 (00:00) 19.9 11.67 (16:30) 6.39 (16:10) 0 0 0 0 0
11-10-2019 25.8 (15:50) 10.5 (00:00) 18.1 7.22 (06:20) 5.28 (06:20) 0 0 0 0 0
10-10-2019 21.5 (16:10) 4.8 (00:00) 13.2 6.11 (13:50) 4.72 (23:00) 0 0 0 0 0
09-10-2019 20.7 (14:30) 7.8 (00:00) 14.3 10.28 (14:40) 4.17 (16:50) 0 0 0 0 0
08-10-2019 26.1 (16:10) 11.9 (00:00) 19 6.39 (15:10) 3.89 (15:20) 0 0 0 0 0
07-10-2019 24.7 (15:00) 8.6 (00:00) 16.7 16.11 (03:50) 6.67 (01:10) 0 0 0 0 0
06-10-2019 21.2 (15:10) 7.4 (00:00) 14.3 12.78 (17:00) 5.83 (16:00) 0 0 0 0 0
05-10-2019 25 (17:00) 7.2 (00:00) 16.1 7.78 (17:00) 3.61 (15:20) 0 0 0 0 0
04-10-2019 24.2 (14:40) 8.9 (00:00) 16.6 11.39 (15:30) 4.72 (13:40) 0 0 0 0 0
03-10-2019 23.9 (16:00) 5.7 (00:00) 14.8 11.39 (17:00) 4.72 (16:40) 0 0 0 0 0
02-10-2019 18.8 (15:10) 9 (00:00) 13.9 12.22 (18:30) 5.83 (18:30) 0.6 0 0.6 0 0
01-10-2019 25.2 (14:20) 14.5 (00:00) 19.9 10.56 (15:20) 5 (01:20) 0 0 0 0 0
30-09-2019 26.8 (16:40) 12.6 (00:00) 19.7 7.78 (17:50) 4.17 (21:20) 0 0 0 0 0
29-09-2019 26.7 (16:10) 14.2 (00:00) 20.5 7.22 (16:30) 5 (03:40) 0 0 0 0 0
28-09-2019 24.7 (16:10) 10.3 (00:00) 17.5 8.06 (16:50) 5 (21:10) 0 0 0 0 0
27-09-2019 24.8 (16:20) 13 (00:00) 18.9 7.78 (14:30) 4.44 (01:00) 0 0 0 0 0
26-09-2019 24.8 (16:10) 10.8 (00:00) 17.8 7.22 (14:20) 4.44 (21:20) 0 0 0 0 0
25-09-2019 19.9 (15:50) 9.6 (00:00) 14.8 9.72 (12:20) 5.28 (14:40) 0 0 0 0 0
24-09-2019 23.9 (16:20) 12.4 (00:00) 18.1 12.5 (18:00) 5 (17:50) 0 0 0 0 0
23-09-2019 20.2 (16:40) 7.2 (00:00) 13.7 8.06 (12:50) 4.17 (13:00) 0 0 0 0 0
22-09-2019 18.2 (15:10) 9.7 (00:00) 14 9.44 (11:40) 4.17 (21:10) 12.6 2 10.6 0 0
21-09-2019 21.4 (16:40) 13.7 (00:00) 17.5 8.89 (16:50) 6.11 (16:50) 9.2 7.2 1.6 0 0.4
20-09-2019 24.8 (15:10) 14.6 (00:00) 19.7 12.78 (14:40) 7.5 (13:10) 0 0 0 0 0
19-09-2019 25.6 (14:10) 13.2 (00:00) 19.4 10 (15:10) 6.11 (16:20) 0.4 0 0 0.4 0

Gráficas

Temp. máximas Temp. mínimas Temp. medias Precipitaciones Rachas de viento máximas Velocidades máximas media en intervalos de 10 minutos

Datos horarios

Fecha y hora oficial Temperatura (ºC) Velocidad del viento (km/h) Dirección del viento Racha (km/h) Dirección de racha Precipitación (mm) Presión (hPa) Tendencia (hPa) Humedad (%)
2019-10-18 23:00:00 13 5 Norte 10 Norte 0 897.8 -0.3 75
2019-10-18 22:00:00 13.5 4 Oeste 17 Nordeste 0 897.9 -0.4 69
2019-10-18 21:00:00 13.2 10 Norte 15 Nordeste 0 897.8 -0.9 76
2019-10-18 20:00:00 13.8 4 Oeste 12 Sur 0 898.1 -0.7 78
2019-10-18 19:00:00 14.4 9 Sur 17 Sur 0 898.3 -0.6 74
2019-10-18 18:00:00 14.9 7 Sudeste 19 Sur 0 898.7 -0.5 72
2019-10-18 17:00:00 15.5 10 Sur 18 Sur 0 898.8 -0.8 70
2019-10-18 16:00:00 16.2 11 Sur 19 Sur 0 898.9 -1.4 64
2019-10-18 15:00:00 16.7 8 Sur 16 Sur 0 899.2 -1.5 60
2019-10-18 14:00:00 16.8 8 Sur 18 Sur 0 899.6 -0.9 64
2019-10-18 13:00:00 15.6 10 Sur 17 Sur 0 900.3 -0.2 75
2019-10-18 12:00:00 14.2 8 Sur 13 Sur 0 900.7 1 84
2019-10-18 11:00:00 12.6 2 Este 7 Norte 0 900.5 0.5 91
2019-10-18 10:00:00 11.5 6 Nordeste 15 Sudoeste 1.4 900.5 0.1 93
2019-10-18 09:00:00 11.4 4 Oeste 16 Norte 0 899.7 -0.1 90
2019-10-18 08:00:00 11.2 10 Nordeste 18 Norte 1.6 900 -0.2 91
2019-10-18 07:00:00 11.3 7 Noroeste 18 Nordeste 1.4 900.4 -0.2 91
2019-10-18 06:00:00 11.4 8 Nordeste 17 Norte 0 899.8 -0.6 90
2019-10-18 05:00:00 11.4 5 Noroeste 16 Sudoeste 2 900.2 -0.5 88
2019-10-18 04:00:00 12.5 5 Sudoeste 10 Sudoeste 1 900.6 -0.1 78
2019-10-18 03:00:00 12.8 6 Norte 15 Norte 0 900.4 -0.9 72
2019-10-18 02:00:00 12.9 7 Noroeste 22 Nordeste 0 900.7 -0.7 68
2019-10-18 01:00:00 11.6 12 Norte 20 Nordeste 0 900.7 -0.3 74
2019-10-18 00:00:00 12.9 8 Norte 18 Norte 0 901.3 0.2 68
2019-10-17 23:00:00 11.6 12 Nordeste 20 Norte 0 901.4 0.7 74
2019-10-17 22:00:00 11.6 10 Nordeste 21 Norte 0 901 0.4 76
2019-10-17 21:00:00 12.3 4 Noroeste 18 Norte 0 901.1 1 75
2019-10-17 20:00:00 12.9 11 Nordeste 17 Nordeste 0 900.7 0.6 74
2019-10-17 19:00:00 14.4 4 Nordeste 9 Noroeste 0 900.6 -0.1 67
2019-10-17 18:00:00 16.5 4 Sur 8 Sur 0 900.1 -0.8 56
2019-10-17 17:00:00 15.9 3 Este 12 Norte 0 900.1 -1.2 59
2019-10-17 16:00:00 14.6 3 Sudeste 10 Sudeste 0 900.7 -0.8 63
2019-10-17 15:00:00 13.7 5 Nordeste 9 Nordeste 0.2 900.9 -0.4 66
2019-10-17 14:00:00 14.2 3 Sur 11 Sur 0 901.3 0.1 62
2019-10-17 13:00:00 13.1 4 Sur 9 Sudoeste 0 901.5 0.8 67
2019-10-17 12:00:00 12.5 3 Sudoeste 8 Sur 0 901.3 1 71
2019-10-17 11:00:00 10.8 4 Nordeste 9 Norte 0 901.2 2 89
2019-10-17 10:00:00 10.3 8 Nordeste 28 Norte 0.6 900.7 1 85
2019-10-17 09:00:00 9.9 13 Nordeste 21 Nordeste 0.2 900.3 0.6 80
2019-10-17 08:00:00 10.9 11 Norte 23 Norte 0 899.2 -0.7 64
2019-10-17 07:00:00 11.2 5 Nordeste 19 Nordeste 0 899.7 -0.7 65
2019-10-17 06:00:00 10.8 13 Nordeste 21 Nordeste 0 899.7 -0.9 62
2019-10-17 05:00:00 10.6 11 Norte 24 Nordeste 0 899.9 -0.8 61
2019-10-17 04:00:00 10.1 18 Norte 24 Nordeste 0 900.4 -0.7 64
2019-10-17 03:00:00 10.9 16 Norte 22 Nordeste 0 900.6 -0.8 62
2019-10-17 02:00:00 12.1 10 Norte 19 Norte 0 900.7 -0.9 53
2019-10-17 01:00:00 11.5 13 Nordeste 23 Norte 0 901.1 0.1 60
2019-10-17 00:00:00 11.4 15 Norte 23 Nordeste 0 901.4 1 60
2019-10-16 23:00:00 11.2 8 Norte 20 Norte 0 901.6 0.9 63
2019-10-16 22:00:00 11.1 11 Nordeste 24 Nordeste 0 901 0.9 64
2019-10-16 21:00:00 10.6 16 Nordeste 24 Nordeste 0 900.4 0.2 69
2019-10-16 20:00:00 12.3 9 Norte 17 Nordeste 0 900.7 0.3 61
2019-10-16 19:00:00 14.6 4 Oeste 12 Sudoeste 0 900.1 -0.6 48
2019-10-16 18:00:00 16.4 4 Norte 13 Sudoeste 0 900.2 -0.6 46
2019-10-16 17:00:00 16.2 4 Sur 15 Sur 0 900.4 -1.1 43
2019-10-16 16:00:00 16.6 9 Sur 20 Sur 0 900.7 -1.5 42
2019-10-16 15:00:00 16.7 9 Sur 15 Sur 0 900.8 -1.9 42
2019-10-16 14:00:00 14.6 6 Sur 17 Sur 0 901.5 -1 48
2019-10-16 13:00:00 14.6 9 Sur 19 Sur 0 902.2 -0.3 47
2019-10-16 12:00:00 14.3 9 Sur 20 Sur 0 902.7 0.8 47
2019-10-16 11:00:00 12.8 8 Sur 15 Sur 0 902.5 1.1 52
2019-10-16 10:00:00 9.6 3 Este 9 Sudeste 0 902.5 0.9 64
2019-10-16 09:00:00 8.6 4 Noroeste 15 Nordeste 0 901.9 0 72
2019-10-16 08:00:00 8.3 11 Nordeste 19 Nordeste 0 901.4 -0.7 72
2019-10-16 07:00:00 8.4 14 Nordeste 18 Norte 0 901.6 -0.6 72
2019-10-16 06:00:00 8.2 6 Norte 16 Norte 0 901.9 -0.7 72
2019-10-16 05:00:00 8.1 11 Norte 16 Nordeste 0 902.1 -0.8 74
2019-10-16 04:00:00 8.1 10 Norte 16 Nordeste 0 902.2 -0.8 71
2019-10-16 03:00:00 7.7 13 Nordeste 18 Nordeste 0 902.6 -0.6 71
2019-10-16 02:00:00 7.1 15 Norte 21 Nordeste 0 902.9 -0.1 75
2019-10-16 01:00:00 7.1 6 Norte 15 Norte 0 903 0.4 75
2019-10-16 00:00:00 7.2 4 Norte 14 Norte 0 903.2 0.8 76
2019-10-15 23:00:00 7.2 9 Norte 15 Norte 0 903 0.4 76
2019-10-15 22:00:00 7.1 4 Norte 21 Nordeste 0 902.6 0.5 77
2019-10-15 21:00:00 7 8 Nordeste 22 Nordeste 0 902.4 0.8 80
2019-10-15 20:00:00 7.9 13 Nordeste 18 Nordeste 0 902.6 1.2 78
2019-10-15 19:00:00 9.8 4 Noroeste 17 Oeste 0 902.1 1 66
2019-10-15 18:00:00 11.2 9 Oeste 26 Sudoeste 0 901.6 0.2 60
2019-10-15 17:00:00 10.9 11 Sudoeste 31 Sur 0 901.4 0 63
2019-10-15 16:00:00 11.5 9 Sudoeste 24 Oeste 0 901.1 -0.1 59
2019-10-15 15:00:00 10.5 12 Sudoeste 29 Sudoeste 0 901.4 0.4 66
2019-10-15 14:00:00 10.1 15 Sudoeste 37 Sudoeste 0 901.4 1 66
2019-10-15 13:00:00 11 15 Sudoeste 37 Sudoeste 0 901.2 1.2 61
2019-10-15 12:00:00 10.1 10 Sudoeste 37 Sudoeste 0.2 901 1.7 69
2019-10-15 11:00:00 7.7 6 Oeste 26 Sudoeste 0 900.4 1.7 77
2019-10-15 10:00:00 6.4 8 Oeste 19 Oeste 0 900 1.8 83
2019-10-15 09:00:00 5.5 4 Sur 8 Norte 0 899.3 1.2 89
2019-10-15 08:00:00 5.2 5 Oeste 13 Norte 0 898.7 0.8 88
2019-10-15 07:00:00 4.9 4 Oeste 10 Noroeste 0 898.2 0.8 88
2019-10-15 06:00:00 5.3 6 Oeste 22 Sudoeste 0.6 898.1 0.7 86
2019-10-15 05:00:00 6 8 Sudoeste 26 Sur 0.2 897.9 0.5 87
2019-10-15 04:00:00 6.8 6 Oeste 18 Sudoeste 0 897.4 0.1 87
2019-10-15 03:00:00 7.2 2 Norte 8 Nordeste 0 897.4 0.2 92
2019-10-15 02:00:00 7.4 5 Norte 21 Sur 0.6 897.4 0 89
2019-10-15 01:00:00 7.6 5 Oeste 17 Nordeste 1.6 897.3 0.5 91
2019-10-15 00:00:00 8.2 4 Este 16 Sudeste 0.6 897.2 1.9 88
2019-10-14 23:00:00 9 3 Norte 13 Noroeste 0.6 897.4 2.4 90
2019-10-14 22:00:00 9.5 8 Norte 46 Sudoeste 5.8 896.8 1.9 88
2019-10-14 21:00:00 11.9 6 Oeste 15 Oeste 0 895.3 0.2 84
2019-10-14 20:00:00 11.8 4 Norte 11 Nordeste 0 895 -0.5 86
2019-10-14 19:00:00 12.7 8 Nordeste 35 Sudeste 0.4 894.9 -0.7 79
2019-10-14 18:00:00 13.2 13 Este 37 Sudeste 4 895.1 -1.4 85
2019-10-14 17:00:00 12.9 8 Norte 33 Oeste 8 895.5 -2.4 91
2019-10-14 16:00:00 15.3 16 Sudeste 37 Este 0 895.6 -3.3 69
2019-10-14 15:00:00 15.6 18 Este 41 Este 0 896.5 -1.6 65
2019-10-14 14:00:00 13.7 17 Sudeste 38 Sur 1 897.9 0.2 79
2019-10-14 13:00:00 13.8 21 Sudeste 41 Sur 2.4 898.9 1.7 84
2019-10-14 12:00:00 15.1 21 Sudeste 36 Sur 0.2 898.1 0.8 75
2019-10-14 11:00:00 17.5 20 Sudeste 46 Sudeste 0 897.7 0.7 55
2019-10-14 10:00:00 17.9 23 Sudeste 44 Sudeste 0 897.2 0.1 53
2019-10-14 09:00:00 17.5 20 Sudeste 43 Sudeste 0 897.3 0.1 54
2019-10-14 08:00:00 17.8 19 Sudeste 50 Sudeste 0 897 -0.6 50
2019-10-14 07:00:00 17.8 23 Sudeste 38 Sur 0 897.1 -1.4 49
2019-10-14 06:00:00 17.7 21 Sudeste 38 Sudeste 0 897.2 -2.2 48
2019-10-14 05:00:00 15.9 8 Sur 21 Sudeste 0 897.6 -2.9 58
2019-10-14 04:00:00 15.5 4 Sudoeste 21 Sudoeste 0 898.5 -2.1 64
2019-10-14 03:00:00 16.4 10 Sur 27 Sudeste 0 899.4 -0.9 67
2019-10-14 02:00:00 17.1 14 Sudeste 26 Sudeste 0 900.5 0 65
2019-10-14 01:00:00 17.4 17 Sudeste 39 Sur 0 900.6 0.4 66
2019-10-14 00:00:00 17.6 17 Sudeste 40 Sudeste 0 900.3 -0.1 68
2019-10-13 23:00:00 18.4 19 Sudeste 35 Sur 0 900.5 0.3 64
2019-10-13 22:00:00 18.9 19 Sudeste 34 Sudeste 0 900.2 0.2 60
2019-10-13 21:00:00 19.3 12 Sudeste 30 Sudeste 0 900.4 0.2 54
2019-10-13 20:00:00 20.1 14 Sudeste 29 Sur 0 900.2 -0.2 51
2019-10-13 19:00:00 21.3 14 Sur 37 Sur 0 900 -0.4 41
2019-10-13 18:00:00 22.8 17 Sur 42 Sudeste 0 900.2 -0.2 38
2019-10-13 17:00:00 23.2 18 Sur 42 Sur 0 900.4 -0.9 37
2019-10-13 16:00:00 23 17 Sur 46 Sur 0 900.4 -1.5 39
2019-10-13 15:00:00 22.9 18 Sur 40 Sur 0 900.4 -1.6 41
2019-10-13 14:00:00 21.2 20 Sudeste 45 Sur 0 901.3 -0.6 48
2019-10-13 13:00:00 21 18 Sudeste 37 Sudeste 0 901.9 0.6 49
2019-10-13 12:00:00 20.4 20 Sudeste 41 Sudeste 0 902 1.1 52
2019-10-13 11:00:00 19.2 17 Sudeste 40 Sudeste 0 901.9 1.7 56
2019-10-13 10:00:00 17.6 15 Sudeste 46 Sudeste 0 901.3 1.4 59
2019-10-13 09:00:00 15.7 14 Sudeste 28 Sudeste 0 900.9 1.1 67
2019-10-13 08:00:00 15.4 4 Noroeste 26 Sudeste 0 900.2 -0.1 67
2019-10-13 07:00:00 15.8 6 Sur 20 Sur 0 899.9 -1.4 65
2019-10-13 06:00:00 16 15 Sur 22 Sur 0 899.8 -2.1 66
2019-10-13 05:00:00 16.2 4 Oeste 28 Sur 0 900.3 -1.4 67
2019-10-13 04:00:00 16.3 10 Sudeste 32 Sudeste 0 901.3 -0.8 70
2019-10-13 03:00:00 17 12 Sudeste 23 Sudeste 0 901.9 0.1 66
2019-10-13 02:00:00 17.6 13 Sur 26 Sudeste 0 901.7 -0.1 64
2019-10-13 01:00:00 17.9 14 Sudeste 30 Sur 0 902.1 0.7 64
2019-10-13 00:00:00 18.1 5 Nordeste 22 Nordeste 0 901.8 0.3 63
2019-10-12 23:00:00 18.2 4 Este 13 Sudeste 0 901.8 0.6 61
2019-10-12 22:00:00 18.9 11 Sudeste 28 Sudeste 0 901.4 0.3 58
2019-10-12 21:00:00 19.7 16 Sudeste 33 Sur 0 901.5 0.2 54
2019-10-12 20:00:00 20 10 Sur 24 Sur 0 901.2 -0.2 52
2019-10-12 19:00:00 20.4 11 Sudeste 36 Sur 0 901.1 -0.7 52
2019-10-12 18:00:00 21.1 19 Sudeste 39 Sur 0 901.3 -1 50
2019-10-12 17:00:00 22.3 14 Sudeste 42 Sudeste 0 901.4 -1.4 45
2019-10-12 16:00:00 22.6 18 Sudeste 41 Sur 0 901.8 -1.4 45
2019-10-12 15:00:00 23.5 17 Sudeste 37 Sur 0 902.3 -1.2 43
2019-10-12 14:00:00 22.3 21 Sur 39 Sur 0 902.8 -0.6 46
2019-10-12 13:00:00 23.4 16 Sur 31 Sur 0 903.2 0 43
2019-10-12 12:00:00 20.9 6 Sur 17 Nordeste 0 903.5 0.7 53
2019-10-12 11:00:00 19.2 8 Sudeste 15 Sudeste 0 903.4 0.7 58
2019-10-12 10:00:00 17.3 5 Sudoeste 18 Sur 0 903.2 0.4 68
2019-10-12 09:00:00 16.4 6 Oeste 17 Sudeste 0 902.8 0.9 71
2019-10-12 08:00:00 16.8 11 Sudeste 26 Sudeste 0 902.7 0.9 71
2019-10-12 07:00:00 17.1 13 Sur 22 Sur 0 902.8 0 68
2019-10-12 06:00:00 17.9 7 Sur 14 Sur 0 901.9 -1.4 63
2019-10-12 05:00:00 18.3 4 Sudoeste 22 Sur 0 901.8 -1.4 62
2019-10-12 04:00:00 18.5 13 Sur 31 Sur 0 902.8 -0.4 63
2019-10-12 03:00:00 19 18 Sudeste 33 Sudeste 0 903.3 -0.2 60
2019-10-12 02:00:00 18.9 8 Sur 26 Sur 0 903.2 -0.1 56
2019-10-12 01:00:00 19.6 7 Este 21 Este 0 903.2 0.3 52
2019-10-12 00:00:00 19.4 5 Sudeste 14 Sur 0 903.5 0.7 51
2019-10-11 23:00:00 19.3 4 Noroeste 11 Oeste 0 903.3 0.6 50
2019-10-11 22:00:00 18.6 2 Norte 21 Norte 0 902.9 0.1 51
2019-10-11 21:00:00 19.3 14 Norte 25 Norte 0 902.8 -0.3 48
2019-10-11 20:00:00 20.2 14 Norte 19 Norte 0 902.7 -0.6 45
2019-10-11 19:00:00 22.3 4 Sur 17 Sudoeste 0 902.8 -0.8 40
2019-10-11 18:00:00 24.5 9 Sudoeste 22 Sudoeste 0 903.1 -1.1 32
2019-10-11 17:00:00 25.3 13 Sudoeste 22 Sudoeste 0 903.3 -1.6 29
2019-10-11 16:00:00 25.1 13 Sur 25 Sudoeste 0 903.6 -1.9 32
2019-10-11 15:00:00 24.8 9 Sudeste 22 Sur 0 904.2 -1.6 33
2019-10-11 14:00:00 24.7 9 Sudeste 23 Sur 0 904.9 -0.9 33
2019-10-11 13:00:00 24.2 8 Sur 20 Sur 0 905.5 0 34
2019-10-11 12:00:00 22.7 9 Sur 15 Sur 0 905.8 0.8 29
2019-10-11 11:00:00 20.6 7 Sur 10 Sur 0 905.8 1 27
2019-10-11 10:00:00 16.7 7 Nordeste 15 Norte 0 905.5 0.7 61
2019-10-11 09:00:00 14.1 9 Norte 15 Norte 0 905 0.2 66
2019-10-11 08:00:00 12.9 8 Norte 16 Norte 0 904.8 -0.3 62
2019-10-11 07:00:00 12.4 10 Norte 26 Norte 0 904.8 -0.4 57
2019-10-11 06:00:00 12.3 17 Norte 22 Norte 0 904.8 -0.8 47
2019-10-11 05:00:00 10.9 7 Norte 18 Norte 0 905.1 -0.4 54
2019-10-11 04:00:00 11 3 Noroeste 20 Norte 0 905.2 -0.6 51
2019-10-11 03:00:00 10.9 4 Norte 12 Nordeste 0 905.6 -0.2 49
2019-10-11 02:00:00 11.6 7 Norte 12 Norte 0 905.5 -0.3 47
2019-10-11 01:00:00 12.2 8 Norte 19 Norte 0 905.8 0.2 46
2019-10-11 00:00:00 11.8 8 Nordeste 21 Nordeste 0 905.8 0.5 48
2019-10-10 23:00:00 12.4 17 Norte 21 Norte 0 905.8 0.9 45
2019-10-10 22:00:00 12.2 8 Norte 21 Nordeste 0 905.6 0.9 44
2019-10-10 21:00:00 13 10 Norte 22 Nordeste 0 905.3 0.7 41
2019-10-10 20:00:00 14.3 12 Norte 19 Norte 0 904.9 0.3 36
2019-10-10 19:00:00 16.9 4 Norte 14 Sur 0 904.7 -0.1 29
2019-10-10 18:00:00 20.4 8 Sudoeste 19 Sudoeste 0 904.6 -0.4 23
2019-10-10 17:00:00 21.3 8 Sudoeste 19 Sudoeste 0 904.6 -0.8 20
2019-10-10 16:00:00 21.4 8 Sudoeste 21 Sudoeste 0 904.8 -1 24
2019-10-10 15:00:00 20.4 10 Sudoeste 22 Sudoeste 0 905 -1.2 30
2019-10-10 14:00:00 20.1 9 Sudoeste 22 Sudoeste 0 905.4 -0.8 35
2019-10-10 13:00:00 18.7 6 Sur 14 Sur 0 905.8 -0.1 38
2019-10-10 12:00:00 16.4 7 Sudeste 12 Sudeste 0 906.2 1.1 45
2019-10-10 11:00:00 13.5 5 Sudeste 9 Sudeste 0 906.2 1.3 52
2019-10-10 10:00:00 10 7 Nordeste 13 Nordeste 0 905.9 1.1 63
2019-10-10 09:00:00 6.6 0 Calma 7 Nordeste 0 905.1 0.5 81
2019-10-10 08:00:00 5 3 Norte 6 Oeste 0 904.9 0.1 83
2019-10-10 07:00:00 5.2 3 Oeste 6 Norte 0 904.8 0.3 85
2019-10-10 06:00:00 6.3 5 Norte 8 Oeste 0 904.6 -0.5 83
2019-10-10 05:00:00 5.6 3 Norte 9 Nordeste 0 904.8 -0.3 86
2019-10-10 04:00:00 6.4 4 Norte 12 Oeste 0 904.5 -0.6 85
2019-10-10 03:00:00 6.4 2 Noroeste 14 Nordeste 0 905.1 0.3 86
2019-10-10 02:00:00 6.7 3 Oeste 6 Norte 0 905.1 0.2 88
2019-10-10 01:00:00 7 0 Calma 7 Nordeste 0 905.1 0.7 85
2019-10-10 00:00:00 7.9 3 Norte 8 Nordeste 0 904.8 0.8 83
2019-10-09 23:00:00 8.6 5 Nordeste 10 Nordeste 0 904.9 1.4 81
2019-10-09 22:00:00 9.3 2 Nordeste 5 Norte 0 904.4 1.7 77
2019-10-09 21:00:00 10.9 3 Nordeste 14 Oeste 0 904 1.8 71
2019-10-09 20:00:00 12.5 7 Oeste 17 Sudoeste 0 903.5 1.3 65
2019-10-09 19:00:00 15.1 7 Sudoeste 24 Oeste 0 902.7 0.3 56
2019-10-09 18:00:00 18 11 Sudoeste 31 Sudoeste 0 902.2 -0.2 48
2019-10-09 17:00:00 19.1 13 Sudoeste 35 Sudoeste 0 902.2 -0.6 45
2019-10-09 16:00:00 20.1 14 Sudoeste 27 Sudoeste 0 902.4 -0.7 42
2019-10-09 15:00:00 20.4 13 Sudoeste 37 Sudoeste 0 902.4 -0.9 43
2019-10-09 14:00:00 19 10 Oeste 24 Noroeste 0 902.8 -0.7 52
2019-10-09 13:00:00 17.5 13 Sudoeste 26 Sudoeste 0 903.1 0 61
2019-10-09 12:00:00 18.9 10 Sur 18 Sudoeste 0 903.3 0.5 55
2019-10-09 11:00:00 15.4 10 Sur 16 Sudoeste 0 903.5 0.7 67
2019-10-09 10:00:00 13.6 8 Sudoeste 15 Sudoeste 0 903.1 0.9 73
2019-10-09 09:00:00 12.5 4 Norte 10 Oeste 0 902.8 1.3 73
2019-10-09 08:00:00 11.6 3 Norte 8 Oeste 0 902.8 1.2 75
2019-10-09 07:00:00 12.7 2 Norte 10 Norte 0 902.2 0.2 72
2019-10-09 06:00:00 13 2 Oeste 10 Nordeste 0 901.5 -0.7 69
2019-10-09 05:00:00 13 3 Norte 10 Norte 0 901.6 -0.5 67
2019-10-09 04:00:00 12.6 3 Nordeste 10 Norte 0 902 -0.5 68
2019-10-09 03:00:00 14.1 9 Norte 15 Norte 0 902.2 -0.4 62
2019-10-09 02:00:00 14.2 12 Norte 17 Norte 0 902.1 -0.7 63
2019-10-09 01:00:00 13.7 2 Norte 14 Nordeste 0 902.5 0.1 64
2019-10-09 00:00:00 15.3 6 Norte 13 Nordeste 0 902.6 0.6 57
2019-10-08 23:00:00 16.4 8 Norte 12 Norte 0 902.8 0.8 53
2019-10-08 22:00:00 17.7 9 Norte 16 Nordeste 0 902.4 0.6 48
2019-10-08 21:00:00 18.4 12 Norte 21 Norte 0 902 0.2 46
2019-10-08 20:00:00 19.4 3 Norte 14 Sudoeste 0 902 0.2 43
2019-10-08 19:00:00 23 8 Sudoeste 13 Sudoeste 0 901.8 -0.3 36
2019-10-08 18:00:00 25.2 7 Sur 22 Sudoeste 0 901.8 -0.6 32
2019-10-08 17:00:00 25.5 12 Sudoeste 20 Sudoeste 0 901.8 -1.2 32
2019-10-08 16:00:00 26 9 Sudoeste 23 Sur 0 902.1 -1.4 34
2019-10-08 15:00:00 25.4 9 Sudeste 19 Sur 0 902.4 -1.3 38
2019-10-08 14:00:00 24.6 10 Sur 20 Sur 0 903 -0.6 41
2019-10-08 13:00:00 23.8 9 Sudeste 19 Sur 0 903.5 -0.3 43
2019-10-08 12:00:00 22.3 8 Sur 14 Sur 0 903.7 0.1 48
2019-10-08 11:00:00 20.2 4 Sudeste 8 Sudeste 0 903.6 0.4 56
2019-10-08 10:00:00 16.5 4 Nordeste 14 Nordeste 0 903.8 0.6 69
2019-10-08 09:00:00 13.5 5 Nordeste 8 Nordeste 0 903.6 0.2 82
2019-10-08 08:00:00 12.8 3 Este 10 Norte 0 903.2 0.2 81
2019-10-08 07:00:00 12.4 2 Sur 8 Nordeste 0 903.2 -0.4 84
2019-10-08 06:00:00 12.2 4 Nordeste 14 Nordeste 0 903.4 -0.6 85
2019-10-08 05:00:00 13.4 5 Norte 15 Norte 0 903 -0.5 81
2019-10-08 04:00:00 13.4 8 Norte 11 Norte 0 903.6 -0.2 80
2019-10-08 03:00:00 13.1 4 Norte 11 Oeste 0 904 0.5 80
2019-10-08 02:00:00 13.7 4 Sudoeste 20 Norte 0 903.5 0.2 77
2019-10-08 01:00:00 14 4 Norte 19 Sur 0 903.8 0.6 74
2019-10-08 00:00:00 15.2 4 Oeste 11 Oeste 0 903.5 0.9 71
2019-10-07 23:00:00 15.5 4 Sur 9 Noroeste 0 903.3 0.9 68
2019-10-07 22:00:00 16 6 Noroeste 16 Oeste 0 903.2 1.1 66
2019-10-07 21:00:00 17.4 10 Oeste 17 Oeste 0 902.6 1.1 59
2019-10-07 20:00:00 19 7 Noroeste 21 Nordeste 0 902.4 1 52
2019-10-07 19:00:00 20.1 9 Nordeste 31 Norte 0 902.1 0.9 48
2019-10-07 18:00:00 21.8 15 Norte 30 Noroeste 0 901.5 0.5 42
2019-10-07 17:00:00 22.2 14 Nordeste 36 Nordeste 0 901.4 0.2 39
2019-10-07 16:00:00 23.3 15 Nordeste 36 Nordeste 0 901.2 -0.7 34
2019-10-07 15:00:00 24.3 10 Sudeste 25 Norte 0 901 -0.9 29
2019-10-07 14:00:00 24 9 Nordeste 25 Nordeste 0 901.2 -0.4 26
2019-10-07 13:00:00 22.7 10 Nordeste 21 Nordeste 0 901.9 0.7 23
2019-10-07 12:00:00 21 6 Nordeste 17 Norte 0 901.9 1.1 25
2019-10-07 11:00:00 16.7 5 Sudeste 12 Sudeste 0 901.6 1.3 29
2019-10-07 10:00:00 13.3 5 Sur 12 Sudoeste 0 901.2 0.9 33
2019-10-07 09:00:00 10.8 3 Sur 13 Noroeste 0 900.8 0.3 40
2019-10-07 08:00:00 8.9 5 Sudoeste 12 Oeste 0 900.3 -0.6 49
2019-10-07 07:00:00 9.2 3 Noroeste 10 Norte 0 900.3 -1.2 50
2019-10-07 06:00:00 9.5 4 Sudeste 13 Sur 0 900.5 -1.6 51
2019-10-07 05:00:00 10.1 3 Sudeste 35 Nordeste 0 900.9 -1.2 49
2019-10-07 04:00:00 13.3 15 Norte 58 Noroeste 0 901.5 -1.3 35
2019-10-07 03:00:00 12.8 7 Oeste 43 Nordeste 0 902.1 -0.9 34
2019-10-07 02:00:00 13.5 15 Noroeste 50 Nordeste 0 902.1 -1.3 31
2019-10-07 01:00:00 12.6 17 Norte 51 Nordeste 0 902.8 -0.6 32
2019-10-07 00:00:00 10.7 7 Sur 19 Sur 0 903 -0.3 59
2019-10-06 23:00:00 10.8 4 Sudeste 16 Sudoeste 0 903.4 0.2 61
2019-10-06 22:00:00 12.6 10 Oeste 22 Oeste 0 903.4 0.7 51
2019-10-06 21:00:00 13 13 Noroeste 27 Oeste 0 903.3 1.2 58
2019-10-06 20:00:00 14.6 6 Nordeste 35 Nordeste 0 903.2 1.3 53
2019-10-06 19:00:00 16.9 6 Norte 28 Sudoeste 0 902.7 0.7 45
2019-10-06 18:00:00 18.4 8 Oeste 33 Sudoeste 0 902.1 -0.3 43
2019-10-06 17:00:00 19.2 18 Sudoeste 46 Sudoeste 0 901.9 -1.4 41
2019-10-06 16:00:00 19.8 21 Sudoeste 43 Sudoeste 0 902 -1.7 46
2019-10-06 15:00:00 21.1 12 Sudeste 28 Sudoeste 0 902.4 -1.6 45
2019-10-06 14:00:00 18.9 10 Sur 22 Sudoeste 0 903.3 -0.5 49
2019-10-06 13:00:00 15.9 8 Sur 18 Sudoeste 0 903.7 0.3 56
2019-10-06 12:00:00 14.7 11 Sudoeste 25 Sudoeste 0 904 0.9 60
2019-10-06 11:00:00 13.2 7 Sur 12 Sudeste 0 903.8 1 67
2019-10-06 10:00:00 10.4 3 Sur 8 Sur 0 903.4 1.1 75
2019-10-06 09:00:00 9.2 4 Norte 10 Nordeste 0 903.1 1.2 75
2019-10-06 08:00:00 7.5 3 Norte 6 Nordeste 0 902.8 1.1 82
2019-10-06 07:00:00 8 4 Noroeste 9 Oeste 0 902.3 0.5 76
2019-10-06 06:00:00 8.6 0 Calma 9 Norte 0 901.9 -0.6 73
2019-10-06 05:00:00 9.6 8 Norte 11 Norte 0 901.7 -0.5 66
2019-10-06 04:00:00 10 5 Noroeste 12 Oeste 0 901.8 -0.6 64
2019-10-06 03:00:00 10.9 4 Sudoeste 9 Oeste 0 902.5 0.3 61
2019-10-06 02:00:00 11 2 Norte 6 Nordeste 0 902.2 0.3 61
2019-10-06 01:00:00 12 0 Calma 13 Norte 0 902.4 0.8 57
2019-10-06 00:00:00 12.9 3 Norte 11 Norte 0 902.2 1 53
2019-10-05 23:00:00 14.8 6 Norte 15 Norte 0 901.9 1.1 43
2019-10-05 22:00:00 15.4 4 Norte 19 Norte 0 901.6 1.1 45
2019-10-05 21:00:00 16.6 13 Norte 19 Norte 0 901.2 1 46
2019-10-05 20:00:00 18.2 10 Norte 18 Nordeste 0 900.8 0.8 46
2019-10-05 19:00:00 21.5 9 Oeste 24 Sudoeste 0 900.5 0.4 35
2019-10-05 18:00:00 23.8 10 Sudoeste 27 Sudoeste 0 900.2 -0.1 33
2019-10-05 17:00:00 25 9 Sudoeste 28 Sudoeste 0 900 -0.6 32
2019-10-05 16:00:00 24.4 11 Sudoeste 23 Sudoeste 0 900.1 -0.8 34
2019-10-05 15:00:00 23.4 12 Sudoeste 21 Sudoeste 0 900.3 -0.7 35
2019-10-05 14:00:00 22.3 10 Sudeste 18 Sur 0 900.6 -0.6 35
2019-10-05 13:00:00 20.7 8 Sudeste 15 Sur 0 900.9 0.1 38
2019-10-05 12:00:00 18.3 5 Este 12 Sudeste 0 901 0.5 40
2019-10-05 11:00:00 16.1 5 Sudeste 10 Este 0 901.2 1.1 52
2019-10-05 10:00:00 12.8 3 Sudeste 10 Norte 0 900.8 0.9 60
2019-10-05 09:00:00 8.8 2 Nordeste 5 Nordeste 0 900.5 0.3 80
2019-10-05 08:00:00 7.3 0 Calma 8 Nordeste 0 900.1 -0.3 81
2019-10-05 07:00:00 8.2 3 Noroeste 10 Norte 0 899.9 -0.7 81
2019-10-05 06:00:00 7.7 2 Norte 12 Nordeste 0 900.2 -0.9 82
2019-10-05 05:00:00 8.4 4 Norte 9 Nordeste 0 900.4 -0.8 81
2019-10-05 04:00:00 9.3 3 Noroeste 13 Norte 0 900.6 -0.6 78
2019-10-05 03:00:00 9.5 3 Norte 19 Nordeste 0 901.1 -0.1 79
2019-10-05 02:00:00 10 3 Norte 14 Nordeste 0 901.2 -0.1 79
2019-10-05 01:00:00 10.3 4 Norte 12 Norte 0 901.2 0.1 80
2019-10-05 00:00:00 10.8 4 Norte 10 Norte 0 901.2 0.3 78
2019-10-04 23:00:00 12 5 Norte 10 Norte 0 901.3 0.7 75
2019-10-04 22:00:00 13.1 3 Nordeste 14 Norte 0 901.1 0.8 72
2019-10-04 21:00:00 14.9 3 Este 19 Noroeste 0 900.9 0.9 67
2019-10-04 20:00:00 17.2 9 Noroeste 18 Oeste 0 900.6 0.6 59
2019-10-04 19:00:00 19.2 5 Oeste 28 Sudoeste 0 900.3 0 51
2019-10-04 18:00:00 21.2 14 Sudoeste 36 Sudoeste 0 900 -0.7 44
2019-10-04 17:00:00 22.1 13 Sudoeste 33 Oeste 0 900 -1.1 43
2019-10-04 16:00:00 23 14 Sudoeste 41 Sudoeste 0 900.3 -1.2 41
2019-10-04 15:00:00 23.5 16 Sudoeste 35 Sudoeste 0 900.7 -1.1 37
2019-10-04 14:00:00 23.9 9 Sudoeste 35 Sudoeste 0 901.1 -1 37
2019-10-04 13:00:00 22.9 14 Sudoeste 36 Sudoeste 0 901.5 -0.4 40
2019-10-04 12:00:00 21.1 10 Sur 21 Sur 0 901.8 -0.1 47
2019-10-04 11:00:00 18.2 9 Sur 12 Sudeste 0 902.1 0.6 50
2019-10-04 10:00:00 16.1 3 Este 12 Nordeste 0 901.9 0.4 54
2019-10-04 09:00:00 11.5 3 Nordeste 9 Nordeste 0 901.9 0.4 62
2019-10-04 08:00:00 9.4 3 Noroeste 9 Oeste 0 901.5 -0.2 65
2019-10-04 07:00:00 9.8 4 Este 9 Norte 0 901.5 -0.1 61
2019-10-04 06:00:00 9.9 3 Sudeste 6 Norte 0 901.5 -0.5 51
2019-10-04 05:00:00 9.4 0 Calma 7 Norte 0 901.7 -0.3 51
2019-10-04 04:00:00 9.7 3 Norte 8 Nordeste 0 901.6 -0.6 48
2019-10-04 03:00:00 9.8 2 Sur 14 Norte 0 902 -0.4 46
2019-10-04 02:00:00 9.7 3 Oeste 8 Norte 0 902 -0.5 45
2019-10-04 01:00:00 10.2 2 Norte 12 Nordeste 0 902.2 0.3 40
2019-10-04 00:00:00 10.4 3 Norte 14 Norte 0 902.4 1.1 43
2019-10-03 23:00:00 11.5 5 Norte 12 Norte 0 902.5 1.5 35
2019-10-03 22:00:00 11.9 5 Norte 11 Norte 0 901.9 1.5 32
2019-10-03 21:00:00 13.7 6 Nordeste 13 Nordeste 0 901.3 1 29
2019-10-03 20:00:00 15.7 4 Norte 18 Oeste 0 901 0.5 24
2019-10-03 19:00:00 19.3 6 Este 28 Sudoeste 0 900.4 0 14
2019-10-03 18:00:00 22.2 11 Oeste 33 Sudoeste 0 900.3 -0.5 10
2019-10-03 17:00:00 22.9 17 Sudoeste 41 Sudoeste 0 900.5 -0.8 13
2019-10-03 16:00:00 23.8 15 Sudoeste 30 Sudoeste 0 900.4 -1.1 20
2019-10-03 15:00:00 22.5 8 Sur 19 Sur 0 900.8 -1.1 31
2019-10-03 14:00:00 20.6 8 Sudoeste 18 Sudoeste 0 901.3 -0.7 36
2019-10-03 13:00:00 18.5 10 Sur 17 Sur 0 901.5 -0.6 38
2019-10-03 12:00:00 16.1 6 Sur 14 Sur 0 901.9 0.3 47
2019-10-03 11:00:00 13.2 6 Sur 10 Sur 0 902 0.6 56
2019-10-03 10:00:00 10.1 3 Sudeste 8 Nordeste 0 902.1 0.7 62
2019-10-03 09:00:00 6.5 3 Noroeste 9 Nordeste 0 901.6 0.2 74
2019-10-03 08:00:00 6.2 4 Norte 13 Norte 0 901.4 0.1 71
2019-10-03 07:00:00 5.8 3 Nordeste 10 Norte 0 901.4 -0.1 74
2019-10-03 06:00:00 6.9 3 Norte 13 Norte 0 901.4 -0.2 69
2019-10-03 05:00:00 6.5 3 Nordeste 18 Norte 0 901.3 -0.7 71
2019-10-03 04:00:00 7.4 5 Nordeste 16 Norte 0 901.5 -0.9 72
2019-10-03 03:00:00 7.7 6 Norte 18 Nordeste 0 901.6 -1.1 72
2019-10-03 02:00:00 7.8 6 Norte 10 Norte 0 902 -0.5 77
2019-10-03 01:00:00 8.2 2 Noroeste 15 Sudeste 0 902.4 0.3 76
2019-10-03 00:00:00 9.5 4 Sudeste 16 Nordeste 0 902.7 0.9 72
2019-10-02 23:00:00 10.2 5 Norte 14 Noroeste 0 902.5 0.9 69
2019-10-02 22:00:00 10.6 6 Sudoeste 10 Noroeste 0 902.1 1.3 71
2019-10-02 21:00:00 11.5 5 Noroeste 12 Oeste 0 901.8 1.3 68
2019-10-02 20:00:00 12.9 5 Noroeste 37 Norte 0 901.6 0.9 64
2019-10-02 19:00:00 14.9 6 Nordeste 44 Norte 0 900.8 0.2 48
2019-10-02 18:00:00 16.7 7 Sudeste 29 Nordeste 0 900.5 -0.1 45
2019-10-02 17:00:00 16.9 10 Nordeste 25 Nordeste 0 900.7 0.2 46
2019-10-02 16:00:00 16.8 9 Nordeste 28 Nordeste 0 900.6 0 48
2019-10-02 15:00:00 17.9 18 Nordeste 32 Nordeste 0 900.6 0.1 41
2019-10-02 14:00:00 17.5 14 Oeste 34 Oeste 0 900.5 0.5 46
2019-10-02 13:00:00 16.2 6 Nordeste 30 Norte 0 900.6 1.2 50
2019-10-02 12:00:00 14.1 14 Oeste 30 Oeste 0 900.5 1.5 65
2019-10-02 11:00:00 11.8 6 Oeste 22 Oeste 0 900 1.5 89
2019-10-02 10:00:00 10.6 8 Oeste 23 Oeste 0.4 899.4 1.2 91
2019-10-02 09:00:00 10.3 5 Sudoeste 21 Sudoeste 0.2 899 0.9 89
2019-10-02 08:00:00 10.4 8 Oeste 19 Noroeste 0 898.5 0.1 82
2019-10-02 07:00:00 10.9 9 Oeste 21 Oeste 0 898.2 -0.4 75
2019-10-02 06:00:00 11.2 9 Sudoeste 35 Sudoeste 0 898.1 -1.1 72
2019-10-02 05:00:00 12.2 7 Noroeste 22 Oeste 0 898.4 -0.7 63
2019-10-02 04:00:00 12.1 8 Noroeste 22 Oeste 0 898.6 -0.2 59
2019-10-02 03:00:00 13.1 8 Noroeste 30 Noroeste 0 899.2 0.4 57
2019-10-02 02:00:00 12.6 12 Oeste 28 Oeste 0 899.1 0.6 68
2019-10-02 01:00:00 13.5 13 Noroeste 24 Oeste 0 898.8 0.4 60
2019-10-02 00:00:00 14.5 15 Noroeste 22 Oeste 0 898.8 0.8 52
2019-10-01 23:00:00 16.1 4 Oeste 28 Norte 0 898.5 0.7 38
2019-10-01 22:00:00 15.4 9 Noroeste 22 Noroeste 0 898.4 0.9 44
2019-10-01 21:00:00 16.9 8 Noroeste 19 Noroeste 0 898 0.9 40
2019-10-01 20:00:00 18 10 Oeste 22 Oeste 0 897.8 0.5 46
2019-10-01 19:00:00 19.5 6 Norte 34 Oeste 0 897.5 0.2 42
2019-10-01 18:00:00 21.4 6 Noroeste 27 Oeste 0 897.1 -0.1 33
2019-10-01 17:00:00 22.3 14 Oeste 36 Oeste 0 897.3 -0.4 40
2019-10-01 16:00:00 21.8 10 Noroeste 38 Sudoeste 0 897.3 -0.8 46
2019-10-01 15:00:00 23.3 12 Sudoeste 37 Sudoeste 0 897.2 -1.2 39
2019-10-01 14:00:00 24.6 13 Sudoeste 29 Sur 0 897.7 -1 35
2019-10-01 13:00:00 23.7 14 Sudoeste 25 Sudoeste 0 898.1 -0.3 35
2019-10-01 12:00:00 24.4 7 Sudeste 16 Sudoeste 0 898.4 0.4 32
2019-10-01 11:00:00 22.3 4 Sudeste 17 Norte 0 898.7 0.7 39
2019-10-01 10:00:00 18.7 14 Nordeste 22 Nordeste 0 898.4 0.5 48
2019-10-01 09:00:00 16.5 14 Nordeste 21 Nordeste 0 898 -0.5 50
2019-10-01 08:00:00 15.6 13 Norte 24 Nordeste 0 898 -0.8 52
2019-10-01 07:00:00 15.7 9 Norte 24 Norte 0 897.9 -1.7 52
2019-10-01 06:00:00 15.6 14 Nordeste 23 Nordeste 0 898.5 -1.8 53
2019-10-01 05:00:00 15.8 15 Nordeste 23 Nordeste 0 898.8 -1.6 53
2019-10-01 04:00:00 15.5 13 Nordeste 22 Nordeste 0 899.6 -1.2 56
2019-10-01 03:00:00 15.8 10 Nordeste 22 Norte 0 900.3 -0.9 57
2019-10-01 02:00:00 16.3 14 Norte 25 Nordeste 0 900.4 -0.6 55
2019-10-01 01:00:00 16.4 13 Norte 20 Norte 0 900.8 0 54
2019-10-01 00:00:00 16.5 7 Norte 17 Norte 0 901.2 0.4 54
2019-09-30 23:00:00 17.2 6 Norte 21 Norte 0 901 0.2 51
2019-09-30 22:00:00 17.7 9 Norte 24 Norte 0 900.8 0.2 52
2019-09-30 21:00:00 18.4 12 Nordeste 19 Nordeste 0 900.8 0.1 51
2019-09-30 20:00:00 20.7 8 Nordeste 17 Nordeste 0 900.8 -0.4 44
2019-09-30 19:00:00 23.9 7 Sudoeste 17 Sudoeste 0 900.6 -1 35
2019-09-30 18:00:00 25.6 8 Sur 28 Sudoeste 0 900.7 -1.4 31
2019-09-30 17:00:00 26.4 10 Sur 24 Oeste 0 901.2 -1.6 28
2019-09-30 16:00:00 26.3 9 Sudoeste 24 Sudoeste 0 901.6 -1.6 27
2019-09-30 15:00:00 25.8 9 Oeste 25 Sur 0 902.1 -1.4 26
2019-09-30 14:00:00 25.9 6 Oeste 26 Sur 0 902.8 -0.5 28
2019-09-30 13:00:00 25.3 10 Sudoeste 22 Sudoeste 0 903.2 0 29
2019-09-30 12:00:00 24.9 6 Sudeste 10 Sudeste 0 903.5 0.5 29
2019-09-30 11:00:00 21.8 3 Este 15 Norte 0 903.3 0.7 37
2019-09-30 10:00:00 17.9 13 Nordeste 22 Nordeste 0 903.2 0.7 47
2019-09-30 09:00:00 15.5 11 Norte 17 Nordeste 0 903 0.5 52
2019-09-30 08:00:00 13.6 6 Norte 13 Norte 0 902.6 0 56
2019-09-30 07:00:00 13.6 2 Sudoeste 14 Nordeste 0 902.5 -0.1 56
2019-09-30 06:00:00 13.5 4 Norte 12 Nordeste 0 902.5 -0.7 58
2019-09-30 05:00:00 12.8 0 Calma 15 Nordeste 0 902.6 -0.6 61
2019-09-30 04:00:00 14.6 4 Norte 11 Nordeste 0 902.6 -0.6 54
2019-09-30 03:00:00 13.7 2 Noroeste 7 Sudoeste 0 903.2 0 57
2019-09-30 02:00:00 14.4 3 Norte 10 Nordeste 0 903.2 0 55
2019-09-30 01:00:00 15 2 Nordeste 9 Nordeste 0 903.2 0.4 53
2019-09-30 00:00:00 15.6 3 Norte 15 Norte 0 903.2 1 48
2019-09-29 23:00:00 16.6 6 Norte 21 Norte 0 903.2 1.2 45
2019-09-29 22:00:00 17.1 5 Norte 22 Nordeste 0 902.8 0.8 45
2019-09-29 21:00:00 18 15 Norte 22 Nordeste 0 902.2 0.4 43
2019-09-29 20:00:00 20.4 8 Norte 14 Norte 0 902 0 37
2019-09-29 19:00:00 23.5 6 Sudoeste 19 Sudoeste 0 902 -0.2 28
2019-09-29 18:00:00 25.6 9 Sudoeste 25 Sudoeste 0 901.8 -1 21
2019-09-29 17:00:00 26.3 11 Sudoeste 26 Sudoeste 0 902 -1.2 19
2019-09-29 16:00:00 26.3 9 Sudoeste 22 Sudoeste 0 902.2 -1.1 22
2019-09-29 15:00:00 25.8 6 Norte 24 Sudoeste 0 902.8 -0.7 23
2019-09-29 14:00:00 26.2 10 Sur 22 Sur 0 903.2 -0.2 23
2019-09-29 13:00:00 25.6 10 Sur 17 Sur 0 903.3 0.2 25
2019-09-29 12:00:00 24.3 6 Sur 12 Sudeste 0 903.5 0.7 31
2019-09-29 11:00:00 21.9 4 Este 18 Nordeste 0 903.4 0.5 40
2019-09-29 10:00:00 17.7 12 Nordeste 24 Nordeste 0 903.1 0.2 51
2019-09-29 09:00:00 15.3 14 Norte 25 Norte 0 902.8 -0.1 60
2019-09-29 08:00:00 14.5 15 Norte 26 Nordeste 0 902.9 -0.3 61
2019-09-29 07:00:00 14.7 12 Norte 23 Nordeste 0 902.9 -0.6 58
2019-09-29 06:00:00 14.5 15 Nordeste 26 Nordeste 0 902.9 -1.1 59
2019-09-29 05:00:00 14.9 16 Nordeste 26 Nordeste 0 903.2 -0.8 54
2019-09-29 04:00:00 15 14 Nordeste 26 Norte 0 903.5 -0.8 50
2019-09-29 03:00:00 14.4 17 Nordeste 25 Nordeste 0 904 -0.6 52
2019-09-29 02:00:00 14.9 13 Norte 24 Nordeste 0 904 -0.5 50
2019-09-29 01:00:00 14.8 18 Nordeste 25 Nordeste 0 904.3 0.1 53
2019-09-29 00:00:00 15 12 Nordeste 21 Norte 0 904.6 0.3 53
2019-09-28 23:00:00 15.7 11 Norte 23 Norte 0 904.5 0.4 50
2019-09-28 22:00:00 15.9 13 Nordeste 27 Nordeste 0 904.2 0.2 57
2019-09-28 21:00:00 16.4 17 Nordeste 26 Nordeste 0 904.3 0.2 57
2019-09-28 20:00:00 18.5 7 Norte 14 Sudoeste 0 904.1 -0.2 49
2019-09-28 19:00:00 21.4 8 Sudoeste 18 Sur 0 904 -0.6 37
2019-09-28 18:00:00 23.2 8 Sur 22 Sur 0 904.1 -1.1 32
2019-09-28 17:00:00 23.7 12 Sudoeste 29 Sur 0 904.3 -1.5 32
2019-09-28 16:00:00 24.5 11 Sur 27 Oeste 0 904.6 -1.5 29
2019-09-28 15:00:00 23.7 12 Sur 24 Sur 0 905.2 -1 30
2019-09-28 14:00:00 23.2 12 Sur 23 Sur 0 905.8 -0.2 31
2019-09-28 13:00:00 23 9 Sur 22 Sur 0 906.1 0.4 31
2019-09-28 12:00:00 22.4 8 Sur 13 Sur 0 906.2 1 34
2019-09-28 11:00:00 19.8 4 Sudeste 9 Nordeste 0 906 1.2 46
2019-09-28 10:00:00 15.4 6 Nordeste 13 Norte 0 905.7 0.8 61
2019-09-28 09:00:00 13.1 10 Norte 17 Nordeste 0 905.2 0.1 67
2019-09-28 08:00:00 11.4 4 Noroeste 14 Norte 0 904.8 -0.1 70
2019-09-28 07:00:00 11 4 Nordeste 11 Norte 0 904.9 0.1 71
2019-09-28 06:00:00 10.6 0 Calma 8 Norte 0 905.1 0.2 72
2019-09-28 05:00:00 10.9 0 Calma 8 Norte 0 904.9 -0.2 72
2019-09-28 04:00:00 11.2 3 Nordeste 14 Norte 0 904.8 -0.2 68
2019-09-28 03:00:00 13.1 11 Norte 16 Norte 0 904.9 0.2 60
2019-09-28 02:00:00 12 2 Oeste 8 Norte 0 905.1 0.8 59
2019-09-28 01:00:00 12.1 3 Norte 13 Norte 0 905 1 59
2019-09-28 00:00:00 13 3 Nordeste 13 Nordeste 0 904.7 1.2 52
2019-09-27 23:00:00 14.6 5 Norte 14 Norte 0 904.3 1.1 45
2019-09-27 22:00:00 14.9 6 Norte 16 Nordeste 0 904 0.9 42
2019-09-27 21:00:00 15.9 6 Norte 19 Nordeste 0 903.5 0.7 39
2019-09-27 20:00:00 17.5 10 Norte 16 Norte 0 903.2 0.4 37
2019-09-27 19:00:00 21.2 4 Noroeste 21 Oeste 0 903.1 0.1 23
2019-09-27 18:00:00 23.4 7 Sudoeste 23 Sudoeste 0 902.8 -0.5 20
2019-09-27 17:00:00 24.2 6 Sudoeste 27 Sudoeste 0 902.8 -0.7 24
2019-09-27 16:00:00 23.8 9 Sudoeste 27 Sudoeste 0 903 -0.7 32
2019-09-27 15:00:00 23.9 10 Sudoeste 28 Sur 0 903.3 -0.6 33
2019-09-27 14:00:00 24 8 Sudoeste 24 Sudoeste 0 903.5 -0.5 33
2019-09-27 13:00:00 23.3 9 Oeste 22 Sudoeste 0 903.7 0 37
2019-09-27 12:00:00 23.5 7 Sur 21 Sudoeste 0 903.9 0.5 37
2019-09-27 11:00:00 21.3 4 Este 18 Norte 0 904 0.6 46
2019-09-27 10:00:00 17 13 Nordeste 24 Nordeste 0 903.7 0.3 61
2019-09-27 09:00:00 14.9 15 Nordeste 23 Norte 0 903.4 0 66
2019-09-27 08:00:00 14.1 14 Norte 21 Norte 0 903.4 0 68
2019-09-27 07:00:00 14.1 10 Norte 18 Nordeste 0 903.4 -0.2 68
2019-09-27 06:00:00 13.9 6 Norte 16 Nordeste 0 903.4 -0.5 69
2019-09-27 05:00:00 14.4 12 Norte 19 Nordeste 0 903.4 -0.5 67
2019-09-27 04:00:00 14.3 9 Nordeste 20 Norte 0 903.6 -0.6 67
2019-09-27 03:00:00 14.7 10 Norte 21 Nordeste 0 903.9 -0.5 65
2019-09-27 02:00:00 15.3 13 Nordeste 22 Norte 0 903.9 -0.3 62
2019-09-27 01:00:00 15.5 16 Norte 22 Nordeste 0 904.2 0.2 61
2019-09-27 00:00:00 15.5 6 Norte 18 Nordeste 0 904.4 0.9 61
2019-09-26 23:00:00 15.7 8 Norte 17 Norte 0 904.2 1 61
2019-09-26 22:00:00 16.4 9 Norte 23 Norte 0 904 1.1 58
2019-09-26 21:00:00 17.4 13 Nordeste 23 Norte 0 903.5 0.6 57
2019-09-26 20:00:00 18.8 7 Nordeste 12 Nordeste 0 903.2 0.1 54
2019-09-26 19:00:00 22.1 4 Sudoeste 14 Oeste 0 902.9 -0.2 43
2019-09-26 18:00:00 23.3 6 Oeste 23 Sudoeste 0 902.9 -0.3 39
2019-09-26 17:00:00 24.1 10 Sudoeste 26 Sudoeste 0 903.1 -0.5 38
2019-09-26 16:00:00 24.4 10 Sur 19 Sur 0 903.1 -0.5 36
2019-09-26 15:00:00 23.9 9 Sudoeste 26 Sudoeste 0 903.2 -0.8 37
2019-09-26 14:00:00 23.5 10 Sudoeste 23 Sudoeste 0 903.6 -0.1 39
2019-09-26 13:00:00 22.7 8 Sudeste 15 Sudeste 0 903.6 0 42
2019-09-26 12:00:00 21.3 7 Sudeste 13 Sur 0 904 0.7 48
2019-09-26 11:00:00 19.1 5 Este 9 Sudeste 0 903.7 0.8 52
2019-09-26 10:00:00 15.4 4 Nordeste 13 Nordeste 0 903.6 0.8 69
2019-09-26 09:00:00 12.4 6 Norte 9 Norte 0 903.3 0.4 77
2019-09-26 08:00:00 11.3 3 Norte 14 Norte 0 902.9 -0.1 80
2019-09-26 07:00:00 11.1 2 Norte 12 Nordeste 0 902.8 -0.1 81
2019-09-26 06:00:00 12.3 9 Norte 15 Nordeste 0 902.9 -0.2 77
2019-09-26 05:00:00 12.5 3 Noroeste 10 Nordeste 0 903 -0.1 75
2019-09-26 04:00:00 12.5 3 Nordeste 10 Nordeste 0 902.9 -0.3 75
2019-09-26 03:00:00 13.3 4 Norte 7 Norte 0 903.1 0 70
2019-09-26 02:00:00 12.9 3 Norte 5 Nordeste 0 903.1 0.3 74
2019-09-26 01:00:00 12.8 2 Sudeste 9 Norte 0 903.2 0.7 76
2019-09-26 00:00:00 12.7 4 Norte 15 Norte 0 903.1 1 75
2019-09-25 23:00:00 12.9 2 Norte 7 Nordeste 0 902.8 1.3 76
2019-09-25 22:00:00 13.4 3 Oeste 7 Norte 0 902.5 1.2 73
2019-09-25 21:00:00 13.5 2 Nordeste 12 Sudoeste 0 902.1 1.3 73
2019-09-25 20:00:00 14.5 3 Oeste 15 Sudoeste 0 901.5 0.8 67
2019-09-25 19:00:00 15.8 4 Sur 15 Sudoeste 0 901.3 0.9 62
2019-09-25 18:00:00 16.7 7 Norte 31 Sudoeste 0 900.8 0.2 58
2019-09-25 17:00:00 17.5 13 Oeste 35 Sudoeste 0 900.7 -0.3 52
2019-09-25 16:00:00 19.1 17 Oeste 35 Sudoeste 0 900.4 -0.7 46
2019-09-25 15:00:00 18.9 19 Sudoeste 35 Oeste 0 900.6 -0.8 46
2019-09-25 14:00:00 19.1 10 Este 31 Nordeste 0 901 -0.3 42
2019-09-25 13:00:00 19.2 9 Norte 35 Nordeste 0 901.1 0 39
2019-09-25 12:00:00 18.2 14 Nordeste 23 Nordeste 0 901.4 0.5 45
2019-09-25 11:00:00 17.1 9 Sudeste 17 Sudeste 0 901.3 0.6 56
2019-09-25 10:00:00 14.2 4 Sudeste 12 Nordeste 0 901.1 0.6 70
2019-09-25 09:00:00 10.7 3 Nordeste 8 Oeste 0 900.9 0.5 89
2019-09-25 08:00:00 9.8 3 Nordeste 7 Noroeste 0 900.7 0.5 90
2019-09-25 07:00:00 10.2 6 Norte 11 Nordeste 0 900.5 0 89
2019-09-25 06:00:00 10.3 2 Norte 10 Norte 0 900.4 -0.2 90
2019-09-25 05:00:00 11 3 Nordeste 8 Oeste 0 900.2 -0.1 89
2019-09-25 04:00:00 12.5 6 Oeste 16 Sudoeste 0 900.5 -0.3 83
2019-09-25 03:00:00 14 5 Oeste 8 Oeste 0 900.6 -0.3 79
2019-09-25 02:00:00 14.5 3 Nordeste 7 Este 0 900.3 -0.6 77
2019-09-25 01:00:00 15.6 3 Sudoeste 12 Noroeste 0 900.8 -0.1 72
2019-09-25 00:00:00 16.3 6 Oeste 14 Oeste 0 900.9 -0.1 67
2019-09-24 23:00:00 16.2 8 Norte 15 Norte 0 900.9 0 66
2019-09-24 22:00:00 16.5 6 Norte 18 Nordeste 0 900.9 0.2 66
2019-09-24 21:00:00 16.9 11 Norte 18 Nordeste 0 901 0.4 66
2019-09-24 20:00:00 19.2 6 Oeste 29 Sudoeste 0 900.9 0.3 55
2019-09-24 19:00:00 20.3 7 Sudoeste 33 Sudoeste 0 900.7 0.1 49
2019-09-24 18:00:00 21.8 17 Oeste 45 Sudoeste 0 900.6 -0.4 41
2019-09-24 17:00:00 22.4 12 Sudoeste 24 Sudoeste 0 900.6 -1.1 42
2019-09-24 16:00:00 23.4 6 Noroeste 20 Sudeste 0 900.6 -1.4 38
2019-09-24 15:00:00 22.4 11 Sudeste 21 Sudeste 0 901 -1.1 40
2019-09-24 14:00:00 21.8 9 Sudoeste 26 Sur 0 901.7 -0.4 39
2019-09-24 13:00:00 21.2 11 Sudoeste 19 Sudoeste 0 902 0.1 38
2019-09-24 12:00:00 22.9 7 Sur 15 Sudoeste 0 902.1 -0.1 35
2019-09-24 11:00:00 20.5 5 Sudeste 10 Nordeste 0 902.1 0.1 44
2019-09-24 10:00:00 16.6 8 Nordeste 17 Norte 0 901.9 -0.3 60
2019-09-24 09:00:00 14 8 Nordeste 18 Norte 0 902.2 0.2 61
2019-09-24 08:00:00 13.1 16 Nordeste 23 Norte 0 902 0 62
2019-09-24 07:00:00 12.9 13 Norte 26 Nordeste 0 902.2 -0.3 63
2019-09-24 06:00:00 13.5 7 Norte 21 Nordeste 0 902 -0.9 61
2019-09-24 05:00:00 13.9 14 Nordeste 22 Norte 0 902 -1.1 61
2019-09-24 04:00:00 14.7 9 Norte 19 Nordeste 0 902.5 -1 60
2019-09-24 03:00:00 14.1 10 Norte 20 Norte 0 902.9 -0.9 63
2019-09-24 02:00:00 14.3 8 Norte 18 Norte 0 903.1 -0.9 62
2019-09-24 01:00:00 14.3 12 Norte 20 Nordeste 0 903.5 -0.2 60
2019-09-24 00:00:00 13.5 8 Norte 18 Norte 0 903.8 0 56
2019-09-23 23:00:00 13.5 8 Nordeste 21 Norte 0 904 0.7 56
2019-09-23 22:00:00 13.7 8 Norte 17 Norte 0 903.7 0.3 57
2019-09-23 21:00:00 14.9 14 Norte 23 Norte 0 903.8 0.2 56
2019-09-23 20:00:00 15.6 10 Norte 15 Norte 0 903.3 -0.1 58
2019-09-23 19:00:00 18.2 6 Sudoeste 12 Sudoeste 0 903.4 0.1 40
2019-09-23 18:00:00 19.3 6 Sudoeste 16 Sudoeste 0 903.6 -0.1 35
2019-09-23 17:00:00 19.9 11 Sudoeste 20 Sudoeste 0 903.4 -0.2 34
2019-09-23 16:00:00 20 7 Sudoeste 21 Sudoeste 0 903.3 -0.5 33
2019-09-23 15:00:00 18.8 8 Sudoeste 19 Sudoeste 0 903.7 -0.3 38
2019-09-23 14:00:00 18.7 8 Sudoeste 26 Sudoeste 0 903.6 -0.5 42
2019-09-23 13:00:00 18.6 15 Sudoeste 29 Sur 0 903.8 0 41
2019-09-23 12:00:00 17.4 7 Sur 17 Sudeste 0 904 0.5 47
2019-09-23 11:00:00 15.4 4 Sudeste 8 Sudeste 0 904.1 1.2 51
2019-09-23 10:00:00 11.9 4 Este 12 Nordeste 0 903.8 1.1 65
2019-09-23 09:00:00 9.1 4 Norte 9 Nordeste 0 903.5 1.2 72
2019-09-23 08:00:00 7.3 0 Calma 6 Noroeste 0 902.9 1.1 77
2019-09-23 07:00:00 8.4 3 Norte 20 Nordeste 0 902.7 1 70
2019-09-23 06:00:00 8.5 12 Norte 19 Norte 0 902.3 0.4 68
2019-09-23 05:00:00 7.7 4 Norte 14 Norte 0 901.8 0.1 71
2019-09-23 04:00:00 8.5 8 Norte 18 Nordeste 0 901.7 0.2 69
2019-09-23 03:00:00 8.6 6 Norte 17 Norte 0 901.9 0.3 69
2019-09-23 02:00:00 9.1 5 Norte 15 Norte 0 901.7 0.5 71
2019-09-23 01:00:00 9.8 11 Norte 18 Norte 0 901.5 0.8 71
2019-09-23 00:00:00 9.7 4 Norte 13 Norte 0 901.6 1.7 73
2019-09-22 23:00:00 10.4 4 Norte 14 Norte 0 901.2 1.7 70
2019-09-22 22:00:00 10.8 6 Norte 21 Norte 0 900.7 1.4 72
2019-09-22 21:00:00 11.8 13 Norte 20 Norte 0 899.9 0.9 72
2019-09-22 20:00:00 14 4 Nordeste 17 Sudoeste 0 899.5 0.7 70
2019-09-22 19:00:00 16.4 8 Oeste 28 Sudoeste 0 899.3 0.5 52
2019-09-22 18:00:00 17.5 6 Norte 19 Oeste 0 899 0.3 54
2019-09-22 17:00:00 17.3 5 Sudoeste 15 Sudoeste 0 898.8 0 56
2019-09-22 16:00:00 17.6 5 Oeste 19 Oeste 0 898.8 0.4 63
2019-09-22 15:00:00 17.8 5 Sudoeste 14 Sudoeste 0 898.7 0.1 67
2019-09-22 14:00:00 16 5 Nordeste 9 Nordeste 0 898.8 0.7 81
2019-09-22 13:00:00 15.5 5 Norte 21 Norte 0 898.4 0.8 76
2019-09-22 12:00:00 14 8 Noroeste 34 Sudoeste 0.8 898.6 1.5 84
2019-09-22 11:00:00 15.5 3 Sudoeste 10 Sudoeste 1.2 898.1 1.5 91
2019-09-22 10:00:00 15 4 Sudoeste 8 Oeste 1.8 897.6 1.3 92
2019-09-22 09:00:00 14.9 4 Oeste 10 Sudoeste 5.2 897.1 0.7 92
2019-09-22 08:00:00 14.9 8 Sudoeste 14 Noroeste 1.6 896.6 -0.3 91
2019-09-22 07:00:00 15.1 6 Sudoeste 11 Sudoeste 0 896.3 -1 89
2019-09-22 06:00:00 15 5 Sudoeste 12 Sudoeste 0 896.4 -1 89
2019-09-22 05:00:00 15.1 3 Sur 10 Sudoeste 1 896.9 -0.9 88
2019-09-22 04:00:00 15.4 7 Oeste 12 Oeste 0.8 897.3 -0.6 86
2019-09-22 03:00:00 15.4 0 Calma 8 Nordeste 0 897.4 -0.8 87
2019-09-22 02:00:00 15.3 3 Sudeste 11 Noroeste 0 897.8 -0.5 88
2019-09-22 01:00:00 15.5 7 Norte 16 Norte 0.2 897.9 0.1 82
2019-09-22 00:00:00 15.4 8 Oeste 13 Oeste 0 898.2 0.7 82
2019-09-21 23:00:00 15.7 4 Este 21 Sudeste 0.4 898.3 1 82
2019-09-21 22:00:00 17.6 4 Sur 15 Sudeste 0 897.8 0.5 62
2019-09-21 21:00:00 17.8 5 Nordeste 14 Nordeste 0 897.5 0 62
2019-09-21 20:00:00 18.3 5 Nordeste 14 Sur 0 897.3 -0.3 59
2019-09-21 19:00:00 19.5 10 Sur 18 Sur 0 897.3 -0.3 52
2019-09-21 18:00:00 19.9 12 Sur 20 Sur 0 897.5 -0.6 52
2019-09-21 17:00:00 20.4 18 Sur 32 Sur 0 897.6 -1 50
2019-09-21 16:00:00 20.6 16 Sur 27 Sudoeste 0 897.6 -1.2 52
2019-09-21 15:00:00 21.2 11 Sur 25 Sur 0 898.1 -0.9 54
2019-09-21 14:00:00 19.2 12 Sur 27 Sur 0 898.6 -0.6 58
2019-09-21 13:00:00 19.5 12 Sudeste 26 Sur 0 898.8 -0.7 57
2019-09-21 12:00:00 17.6 13 Sudeste 24 Sur 0 899 -0.6 65
2019-09-21 11:00:00 14.7 5 Este 12 Sudoeste 0 899.2 -0.6 84
2019-09-21 10:00:00 14.6 5 Sur 17 Sur 0 899.5 -0.4 82
2019-09-21 09:00:00 14.2 9 Sudeste 24 Sudeste 0 899.6 -0.2 83
2019-09-21 08:00:00 14.1 8 Este 22 Este 0.8 899.8 -0.4 85
2019-09-21 07:00:00 14.1 9 Sudeste 23 Sudeste 0.8 899.9 -0.3 86
2019-09-21 06:00:00 14.3 8 Nordeste 19 Nordeste 0.4 899.8 -1.2 80
2019-09-21 05:00:00 14.4 4 Nordeste 13 Norte 0 900.2 -1.6 81
2019-09-21 04:00:00 14.3 6 Nordeste 20 Norte 0.6 900.2 -1.4 82
2019-09-21 03:00:00 13.9 12 Nordeste 23 Norte 2.6 901 -1.1 89
2019-09-21 02:00:00 14.6 8 Norte 13 Sudoeste 2.8 901.8 -0.1 88
2019-09-21 01:00:00 16 4 Nordeste 24 Sudeste 0.8 901.6 -0.1 78
2019-09-21 00:00:00 17.9 11 Sudeste 36 Sudeste 0 902.1 0.4 62
2019-09-20 23:00:00 18.1 12 Sudeste 31 Sur 0 901.9 0.6 68
2019-09-20 22:00:00 19.1 15 Sudeste 42 Sudeste 0 901.7 0.8 61
2019-09-20 21:00:00 20 17 Sudeste 41 Sur 0 901.7 0.8 52
2019-09-20 20:00:00 21.1 17 Sudeste 36 Sur 0 901.3 -0.1 48
2019-09-20 19:00:00 22.1 21 Sur 36 Sur 0 900.9 -1.1 43
2019-09-20 18:00:00 22.5 13 Este 39 Sur 0 900.9 -1.6 42
2019-09-20 17:00:00 22.8 21 Sur 39 Sur 0 901.4 -1.6 41
2019-09-20 16:00:00 24 18 Sur 41 Sur 0 902 -1.4 38
2019-09-20 15:00:00 24.7 16 Sudeste 46 Sur 0 902.5 -1.3 37
2019-09-20 14:00:00 22.6 18 Este 44 Sur 0 903 -1 41
2019-09-20 13:00:00 23.1 15 Sudeste 37 Sur 0 903.4 -0.4 42
2019-09-20 12:00:00 22.1 17 Sudeste 37 Sudeste 0 903.8 0.6 44
2019-09-20 11:00:00 21.6 19 Sudeste 38 Sudeste 0 904 1.1 45
2019-09-20 10:00:00 18.4 7 Sur 19 Norte 0 903.8 1.1 61
2019-09-20 09:00:00 16 10 Nordeste 26 Nordeste 0 903.2 0.6 67
2019-09-20 08:00:00 14.8 10 Norte 18 Nordeste 0 902.9 -0.1 71
2019-09-20 07:00:00 15.4 8 Norte 14 Norte 0 902.7 -0.6 70
2019-09-20 06:00:00 15.2 4 Norte 22 Norte 0 902.6 -1.1 71
2019-09-20 05:00:00 14.9 10 Nordeste 23 Nordeste 0 903 -0.7 74
2019-09-20 04:00:00 15 15 Nordeste 23 Norte 0 903.3 -0.5 75
2019-09-20 03:00:00 15 8 Nordeste 18 Norte 0 903.7 -0.1 74
2019-09-20 02:00:00 15.6 8 Nordeste 17 Nordeste 0 903.7 0 69
2019-09-20 01:00:00 15.9 6 Norte 15 Norte 0 903.8 0.6 68
2019-09-20 00:00:00 16.5 13 Norte 21 Nordeste 0 903.8 0.9 67
2019-09-19 23:00:00 16.2 11 Norte 20 Norte 0 903.7 1.4 69
2019-09-19 22:00:00 15.4 10 Norte 23 Norte 0 903.2 0.9 75
2019-09-19 21:00:00 15.4 12 Norte 24 Nordeste 0 902.9 0.5 78
2019-09-19 20:00:00 17.1 15 Norte 23 Norte 0 902.3 -0.5 75
2019-09-19 19:00:00 17.3 16 Nordeste 25 Nordeste 0 902.3 -0.2 78
2019-09-19 18:00:00 18 13 Nordeste 28 Nordeste 0.4 902.4 0 76
2019-09-19 17:00:00 17.6 18 Nordeste 32 Nordeste 0 902.8 0.1 79
2019-09-19 16:00:00 23.9 17 Sur 36 Sudoeste 0 902.5 -0.7 39
2019-09-19 15:00:00 22.8 12 Sudoeste 29 Sudoeste 0 902.4 -1.1 41
2019-09-19 14:00:00 25.4 12 Sudoeste 23 Sudoeste 0 902.7 -0.8 34
2019-09-19 13:00:00 24.4 6 Sudeste 22 Sudoeste 0 903.2 -0.1 35
2019-09-19 12:00:00 22.9 10 Sur 21 Sur 0 903.5 0.4 41
2019-09-19 11:00:00 22.7 6 Sur 12 Sudeste 0 903.5 0.6 41
2019-09-19 10:00:00 18.4 11 Nordeste 21 Norte 0 903.3 0.5 56
2019-09-19 09:00:00 16.1 10 Nordeste 18 Norte 0 903.1 0.6 63
2019-09-19 08:00:00 14.7 9 Nordeste 20 Norte 0 902.9 0.4 66
2019-09-19 07:00:00 14.4 11 Norte 17 Norte 0 902.8 0 66
2019-09-19 06:00:00 13.6 3 Nordeste 12 Norte 0 902.5 -0.6 70
2019-09-19 05:00:00 14 3 Norte 14 Norte 0 902.5 -0.5 70
2019-09-19 04:00:00 14.4 5 Norte 15 Norte 0 902.8 -0.3 70
2019-09-19 03:00:00 14.7 6 Norte 15 Norte 0 903.1 0 69
2019-09-19 02:00:00 15.3 9 Nordeste 19 Nordeste 0 903 0 69
2019-09-19 01:00:00 16.3 12 Nordeste 18 Norte 0 903.1 0.4 65
2019-09-19 00:00:00 16.8 6 Norte 12 Norte 0 903.1 0.7 64